Time;durP1;ratioP1;P1;durP2;ratioP2;P2;SDS_P1;SDS_P2;PMS_P1;PMS_P2;Temp;Humidity;BMP_temperature;BMP_pressure;BME280_temperature;BME280_humidity;BME280_pressure;Samples;Min_cycle;Max_cycle;Signal;HPM_P1;HPM_P2
2022/07/19 00:00:52;;;;;;;1.73;1.40;;;;;;;20.91;50.07;98610.84;5029390;28;20038;-85
2022/07/19 00:03:20;;;;;;;3.97;1.67;;;;;;;20.87;51.05;98609.78;5032251;28;20485;-84
2022/07/19 00:05:48;;;;;;;1.50;1.40;;;;;;;20.87;51.43;98615.09;5030854;28;20045;-85
2022/07/19 00:08:15;;;;;;;1.95;1.60;;;;;;;20.83;51.38;98612.13;5028422;28;20047;-85
2022/07/19 00:10:42;;;;;;;2.88;1.70;;;;;;;20.73;50.50;98603.22;5027596;28;20046;-85
2022/07/19 00:13:09;;;;;;;2.25;1.80;;;;;;;20.53;50.65;98594.00;5015815;28;20077;-86
2022/07/19 00:15:35;;;;;;;1.70;1.50;;;;;;;20.45;51.03;98583.81;5004405;28;20422;-86
2022/07/19 00:18:02;;;;;;;1.70;1.60;;;;;;;20.48;52.00;98601.13;5029585;28;20037;-84
2022/07/19 00:20:29;;;;;;;1.50;1.40;;;;;;;20.40;51.74;98606.91;5008684;28;20096;-84
2022/07/19 00:22:56;;;;;;;1.50;1.40;;;;;;;20.36;52.23;98603.13;5027781;28;20041;-83
2022/07/19 00:25:22;;;;;;;1.60;1.50;;;;;;;20.38;51.65;98603.66;5020018;28;20457;-85
2022/07/19 00:27:49;;;;;;;1.50;1.40;;;;;;;20.31;52.10;98595.88;5048708;28;20041;-86
2022/07/19 00:30:16;;;;;;;1.95;1.50;;;;;;;20.25;52.02;98594.19;5031999;28;20498;-86
2022/07/19 00:32:42;;;;;;;1.60;1.50;;;;;;;20.25;52.05;98608.31;5013512;28;20053;-85
2022/07/19 00:35:10;;;;;;;1.60;1.50;;;;;;;20.12;52.53;98598.06;5021993;28;20029;-83
2022/07/19 00:37:36;;;;;;;1.80;1.70;;;;;;;20.24;53.32;98611.25;5021297;28;20080;-86
2022/07/19 00:40:12;;;;;;;1.60;1.50;;;;;;;20.20;53.14;98608.25;5021731;28;20041;-86
2022/07/19 00:42:40;;;;;;;1.20;1.20;;;;;;;20.16;52.44;98611.69;5024457;28;20046;-87
2022/07/19 00:45:07;;;;;;;1.52;1.30;;;;;;;20.03;52.23;98605.69;5027270;28;20104;-86
2022/07/19 00:47:34;;;;;;;1.50;1.30;;;;;;;19.95;52.47;98605.31;5031226;28;20045;-86
2022/07/19 00:50:00;;;;;;;2.15;1.52;;;;;;;19.95;53.28;98615.97;5017960;28;20442;-86
2022/07/19 00:52:29;;;;;;;1.60;1.40;;;;;;;19.95;53.92;98603.44;5018889;28;20568;-86
2022/07/19 00:54:56;;;;;;;2.15;1.60;;;;;;;19.94;53.79;98609.81;5020053;28;20037;-86
2022/07/19 00:57:24;;;;;;;2.38;1.35;;;;;;;20.01;54.06;98623.75;5023556;28;20092;-86
2022/07/19 00:59:54;;;;;;;1.42;1.33;;;;;;;20.00;52.51;98621.34;5025036;28;20065;-86
2022/07/19 01:02:22;;;;;;;2.03;1.67;;;;;;;19.72;56.59;98615.13;5030055;28;20794;-87
2022/07/19 01:04:49;;;;;;;2.05;1.58;;;;;;;19.67;56.35;98616.91;5021620;28;20087;-86
2022/07/19 01:07:22;;;;;;;1.60;1.50;;;;;;;19.62;56.57;98624.84;5027552;28;20405;-86
2022/07/19 01:09:50;;;;;;;2.58;1.50;;;;;;;19.63;56.93;98615.81;5021358;28;20072;-84
2022/07/19 01:12:20;;;;;;;1.52;1.40;;;;;;;19.61;56.45;98615.22;5029602;28;20498;-86
2022/07/19 01:14:47;;;;;;;1.83;1.40;;;;;;;19.65;55.84;98625.16;5022925;28;20034;-86
2022/07/19 01:17:14;;;;;;;1.60;1.50;;;;;;;19.61;55.83;98613.41;5024801;28;20053;-85
2022/07/19 01:19:43;;;;;;;1.50;1.40;;;;;;;19.63;55.20;98621.13;5030579;28;20029;-85
2022/07/19 01:22:10;;;;;;;1.70;1.60;;;;;;;19.59;55.34;98620.81;5028792;28;20095;-85
2022/07/19 01:24:37;;;;;;;1.60;1.50;;;;;;;19.64;55.99;98617.41;5021686;28;20091;-86
2022/07/19 01:27:05;;;;;;;1.73;1.63;;;;;;;19.66;55.38;98618.78;5043782;28;20037;-88
2022/07/19 01:29:35;;;;;;;1.80;1.70;;;;;;;19.57;54.26;98616.75;5024046;28;20559;-85
2022/07/19 01:32:04;;;;;;;1.95;1.73;;;;;;;19.55;53.45;98608.19;5022667;28;20092;-85
2022/07/19 01:34:32;;;;;;;2.38;1.80;;;;;;;19.56;54.96;98620.47;5025010;28;20080;-85
2022/07/19 01:36:58;;;;;;;1.90;1.80;;;;;;;19.56;55.61;98620.47;5020315;28;20065;-85
2022/07/19 01:39:25;;;;;;;1.70;1.60;;;;;;;19.52;55.74;98604.19;5024328;28;20080;-85
2022/07/19 01:41:51;;;;;;;2.95;1.70;;;;;;;19.57;56.23;98608.78;5037649;28;20080;-86
2022/07/19 01:44:18;;;;;;;2.08;1.88;;;;;;;19.52;55.58;98610.31;5031078;28;20481;-86
2022/07/19 01:46:45;;;;;;;1.67;1.58;;;;;;;19.44;55.28;98618.72;5028950;28;20075;-84
2022/07/19 01:49:11;;;;;;;1.75;1.65;;;;;;;19.36;55.24;98605.81;5027338;28;20042;-84
2022/07/19 01:51:41;;;;;;;1.65;1.55;;;;;;;19.33;55.49;98600.19;5037630;28;20108;-85
2022/07/19 01:54:07;;;;;;;1.60;1.50;;;;;;;19.33;55.51;98606.31;5021616;28;20038;-86
2022/07/19 01:56:34;;;;;;;1.75;1.65;;;;;;;19.31;54.61;98608.44;5021476;28;20054;-85
2022/07/19 01:59:01;;;;;;;1.75;1.63;;;;;;;19.31;55.78;98616.41;5028682;28;20493;-84
2022/07/19 02:01:27;;;;;;;2.13;2.00;;;;;;;19.33;55.78;98606.31;5025428;28;20053;-84
2022/07/19 02:03:54;;;;;;;1.80;1.70;;;;;;;19.29;55.58;98604.38;5026922;28;20047;-84
2022/07/19 02:06:21;;;;;;;2.47;1.90;;;;;;;19.23;55.57;98603.50;5025390;28;20833;-85
2022/07/19 02:08:48;;;;;;;1.80;1.70;;;;;;;19.14;55.14;98613.75;5028297;28;20045;-85
2022/07/19 02:14:00;;;;;;;1.83;1.73;;;;;;;19.15;55.05;98603.91;5029642;28;20052;-86
2022/07/19 02:16:27;;;;;;;1.98;1.88;;;;;;;19.05;55.77;98607.22;5046243;28;20049;-85
2022/07/19 02:18:54;;;;;;;1.75;1.63;;;;;;;19.02;55.59;98607.72;5009508;28;20096;-86
2022/07/19 02:21:20;;;;;;;1.90;1.70;;;;;;;19.06;55.76;98610.66;5029205;28;20124;-87
2022/07/19 02:23:47;;;;;;;1.95;1.70;;;;;;;18.95;55.89;98599.91;5022492;28;20072;-86
2022/07/19 02:26:14;;;;;;;1.80;1.70;;;;;;;18.95;56.03;98605.22;5041012;28;20476;-86
2022/07/19 02:28:40;;;;;;;1.80;1.70;;;;;;;18.94;56.02;98600.13;5030489;28;20041;-87
2022/07/19 02:31:07;;;;;;;1.70;1.60;;;;;;;18.91;55.59;98603.28;5037899;28;20050;-86
2022/07/19 02:33:34;;;;;;;2.92;1.70;;;;;;;18.85;54.93;98594.41;5024456;28;20046;-86
2022/07/19 02:36:01;;;;;;;1.60;1.50;;;;;;;18.78;55.78;98606.25;5026281;28;20481;-87
2022/07/19 02:38:27;;;;;;;1.20;1.20;;;;;;;18.62;55.90;98599.81;5022026;28;20485;-87
2022/07/19 02:40:54;;;;;;;1.60;1.40;;;;;;;18.62;56.87;98608.59;5028983;28;20125;-87
2022/07/19 02:43:21;;;;;;;1.70;1.60;;;;;;;18.55;56.11;98613.25;5019255;28;20521;-87
2022/07/19 02:45:48;;;;;;;1.50;1.40;;;;;;;18.40;56.27;98607.66;5021407;28;20072;-87
2022/07/19 02:48:15;;;;;;;1.48;1.35;;;;;;;18.50;57.43;98612.34;5021886;28;20073;-87
2022/07/19 02:50:42;;;;;;;2.75;1.77;;;;;;;18.56;56.75;98614.06;5022581;28;20444;-88
2022/07/19 02:53:08;;;;;;;1.50;1.40;;;;;;;18.62;56.33;98615.75;5026183;28;20469;-87
2022/07/19 02:55:36;;;;;;;1.70;1.58;;;;;;;18.66;56.72;98622.22;5030737;28;20065;-87
2022/07/19 02:58:03;;;;;;;1.70;1.60;;;;;;;18.65;55.39;98618.75;5018606;28;20636;-88
2022/07/19 03:00:30;;;;;;;2.08;1.77;;;;;;;18.68;55.63;98620.16;5023776;28;20076;-88
2022/07/19 03:05:50;;;;;;;1.52;1.42;;;;;;;18.56;55.64;98622.03;5021471;28;20042;-87
2022/07/19 03:08:17;;;;;;;1.70;1.60;;;;;;;18.57;56.61;98623.63;5022482;28;20045;-87
2022/07/19 03:10:44;;;;;;;2.15;1.95;;;;;;;18.60;57.02;98628.47;5025681;28;20045;-87
2022/07/19 03:13:10;;;;;;;1.63;1.52;;;;;;;18.55;56.94;98620.41;5014771;28;20050;-87
2022/07/19 03:15:38;;;;;;;2.15;1.98;;;;;;;18.62;57.36;98624.53;5026121;28;20041;-87
2022/07/19 03:18:05;;;;;;;1.60;1.50;;;;;;;18.55;56.87;98625.72;5024570;28;20160;-87
2022/07/19 03:20:50;;;;;;;2.00;1.80;;;;;;;18.52;56.89;98618.22;5024356;28;20060;-87
2022/07/19 03:23:37;;;;;;;2.20;2.00;;;;;;;18.54;57.41;98621.47;5027658;28;20052;-87
2022/07/19 03:26:22;;;;;;;2.17;1.98;;;;;;;18.56;56.99;98614.06;5020543;28;20496;-85
2022/07/19 03:28:50;;;;;;;1.90;1.80;;;;;;;18.57;58.04;98623.63;5027304;28;20049;-85
2022/07/19 03:31:16;;;;;;;1.80;1.70;;;;;;;18.48;56.53;98615.25;5027219;28;20079;-85
2022/07/19 03:33:43;;;;;;;1.98;1.80;;;;;;;18.52;56.93;98619.03;5033664;28;20042;-84
2022/07/19 03:36:10;;;;;;;2.53;1.80;;;;;;;18.46;56.37;98606.69;5015574;28;20073;-85
2022/07/19 03:38:36;;;;;;;2.75;1.90;;;;;;;18.49;56.25;98618.72;5028988;28;20133;-83
2022/07/19 03:41:03;;;;;;;1.80;1.70;;;;;;;18.43;56.95;98618.63;5026791;28;20473;-86
2022/07/19 03:43:30;;;;;;;2.22;1.70;;;;;;;18.48;57.01;98619.75;5023400;28;20046;-85
2022/07/19 03:45:56;;;;;;;1.95;1.85;;;;;;;18.49;57.44;98610.75;5031634;28;20033;-85
2022/07/19 03:48:23;;;;;;;1.92;1.83;;;;;;;18.44;57.80;98603.47;5025310;28;20045;-84
2022/07/19 03:50:50;;;;;;;2.35;2.15;;;;;;;18.51;57.61;98621.94;5039997;28;20045;-86
2022/07/19 03:53:16;;;;;;;3.40;1.90;;;;;;;18.41;58.38;98615.41;5028406;28;20468;-86
2022/07/19 03:55:43;;;;;;;1.90;1.80;;;;;;;18.38;57.89;98625.69;5024037;28;20087;-86
2022/07/19 03:58:10;;;;;;;2.47;1.92;;;;;;;18.36;57.25;98617.16;5023579;28;20080;-87
2022/07/19 04:00:36;;;;;;;1.90;1.80;;;;;;;18.26;57.72;98612.44;5026264;28;20074;-87
2022/07/19 04:03:03;;;;;;;3.17;1.70;;;;;;;18.27;58.52;98621.22;5025017;28;20037;-87
2022/07/19 04:05:31;;;;;;;2.10;1.90;;;;;;;18.26;58.79;98631.03;5023877;28;20065;-87
2022/07/19 04:07:58;;;;;;;2.35;2.15;;;;;;;18.20;60.04;98634.63;5035459;28;20460;-86
2022/07/19 04:10:24;;;;;;;1.77;1.67;;;;;;;18.06;58.80;98622.69;5021503;28;20041;-87
2022/07/19 04:12:51;;;;;;;1.90;1.80;;;;;;;17.91;59.70;98636.41;5033114;28;20045;-88
2022/07/19 04:15:18;;;;;;;1.90;1.80;;;;;;;17.66;59.06;98636.66;5023319;28;20045;-88
2022/07/19 04:17:44;;;;;;;1.80;1.70;;;;;;;17.70;60.56;98645.78;5027602;28;20072;-88
2022/07/19 04:20:12;;;;;;;1.75;1.40;;;;;;;17.74;60.48;98646.13;5021493;28;20045;-88
2022/07/19 04:22:39;;;;;;;2.10;1.90;;;;;;;17.80;61.18;98643.34;5024662;28;20077;-89
2022/07/19 04:25:06;;;;;;;1.80;1.70;;;;;;;17.91;59.88;98637.22;5027946;28;20072;-88
2022/07/19 04:27:33;;;;;;;1.88;1.70;;;;;;;17.96;59.05;98641.03;5014241;28;20135;-87
2022/07/19 04:30:00;;;;;;;2.45;1.88;;;;;;;17.83;58.45;98645.56;5025916;28;20453;-87
2022/07/19 04:32:28;;;;;;;1.73;1.63;;;;;;;17.87;59.66;98640.56;5032818;28;20124;-87
2022/07/19 04:34:55;;;;;;;2.10;1.50;;;;;;;17.96;58.83;98639.19;5028365;28;20050;-83
2022/07/19 04:37:23;;;;;;;1.83;1.73;;;;;;;17.96;60.39;98628.56;5029021;28;20120;-83
2022/07/19 04:39:49;;;;;;;1.42;1.30;;;;;;;18.09;59.70;98646.88;5032195;28;20042;-83
2022/07/19 04:42:16;;;;;;;2.25;1.80;;;;;;;18.15;60.80;98650.44;5019839;28;20056;-83
2022/07/19 04:44:43;;;;;;;2.03;1.90;;;;;;;18.16;59.96;98639.59;5025711;28;20049;-83
2022/07/19 04:47:11;;;;;;;2.08;1.88;;;;;;;18.13;60.92;98639.28;5029453;28;20050;-83
2022/07/19 04:49:38;;;;;;;2.33;1.90;;;;;;;18.16;60.82;98634.28;5009694;28;20046;-83
2022/07/19 04:52:05;;;;;;;1.75;1.65;;;;;;;18.25;60.78;98642.69;5025608;28;20077;-84
2022/07/19 04:54:32;;;;;;;2.70;2.20;;;;;;;18.23;61.06;98626.19;5025974;28;20046;-83
2022/07/19 04:56:59;;;;;;;2.33;2.10;;;;;;;18.28;60.14;98644.88;5015860;28;20038;-83
2022/07/19 04:59:26;;;;;;;1.90;1.80;;;;;;;18.33;61.33;98644.16;5020549;28;20133;-83
2022/07/19 05:01:53;;;;;;;2.00;1.80;;;;;;;18.34;60.83;98641.25;5028731;28;20041;-83
2022/07/19 05:04:20;;;;;;;1.88;1.60;;;;;;;18.38;60.05;98639.75;5030787;28;20495;-84
2022/07/19 05:06:47;;;;;;;2.03;1.92;;;;;;;18.42;60.47;98630.28;5019618;28;20045;-85
2022/07/19 05:09:14;;;;;;;2.00;1.80;;;;;;;18.46;59.33;98633.25;5030662;28;20046;-84
2022/07/19 05:11:44;;;;;;;2.25;2.08;;;;;;;18.52;59.26;98636.81;5010963;28;20053;-85
2022/07/19 05:14:11;;;;;;;1.77;1.63;;;;;;;18.58;58.62;98627.91;5023509;28;20088;-85
2022/07/19 05:16:38;;;;;;;1.83;1.73;;;;;;;18.71;58.18;98636.44;5032056;28;20104;-86
2022/07/19 05:19:05;;;;;;;2.35;2.10;;;;;;;18.79;59.58;98647.72;5019269;28;20041;-86
2022/07/19 05:21:31;;;;;;;1.88;1.70;;;;;;;18.72;59.29;98647.84;5023643;28;20044;-88
2022/07/19 05:23:58;;;;;;;3.03;2.00;;;;;;;18.55;58.44;98646.97;5020692;28;20530;-88
2022/07/19 05:26:25;;;;;;;1.90;1.80;;;;;;;18.52;59.42;98637.63;5023391;28;20104;-88
2022/07/19 05:28:52;;;;;;;1.60;1.50;;;;;;;18.77;59.84;98644.47;5032187;28;20445;-89
2022/07/19 05:31:19;;;;;;;1.77;1.67;;;;;;;18.88;60.18;98644.41;5005227;28;20092;-88
2022/07/19 05:33:46;;;;;;;1.67;1.58;;;;;;;19.11;59.70;98642.66;5026347;28;20448;-87
2022/07/19 05:36:13;;;;;;;1.75;1.65;;;;;;;19.25;59.83;98642.09;5010236;28;20378;-87
2022/07/19 05:38:40;;;;;;;1.83;1.67;;;;;;;19.42;59.77;98651.91;5023426;28;20041;-87
2022/07/19 05:41:09;;;;;;;1.80;1.70;;;;;;;19.63;57.31;98653.88;5025321;28;20065;-87
2022/07/19 05:43:38;;;;;;;1.90;1.70;;;;;;;19.76;57.21;98642.06;5027896;28;20046;-87
2022/07/19 05:46:06;;;;;;;2.20;1.90;;;;;;;19.74;56.04;98647.63;5032166;28;20042;-87
2022/07/19 05:48:33;;;;;;;2.30;1.85;;;;;;;19.87;57.76;98641.16;5030379;28;20048;-87
2022/07/19 05:51:00;;;;;;;1.80;1.70;;;;;;;20.08;57.01;98638.75;5026541;28;20132;-87
2022/07/19 05:53:28;;;;;;;1.80;1.70;;;;;;;20.26;58.03;98638.41;5025601;28;20053;-87
2022/07/19 05:55:55;;;;;;;1.70;1.60;;;;;;;20.48;58.30;98649.91;5025676;28;20058;-86
2022/07/19 05:58:23;;;;;;;1.73;1.63;;;;;;;20.63;57.61;98633.28;5021400;28;20049;-87
2022/07/19 06:03:36;;;;;;;1.52;1.42;;;;;;;21.04;56.49;98633.63;5014865;28;20045;-86
2022/07/19 06:06:03;;;;;;;3.38;1.92;;;;;;;21.19;55.61;98638.28;5031294;28;20150;-86
2022/07/19 06:08:30;;;;;;;1.63;1.52;;;;;;;21.37;54.75;98640.59;5026728;28;20050;-85
2022/07/19 06:10:56;;;;;;;1.60;1.50;;;;;;;21.60;54.86;98634.88;5016065;28;20567;-85
2022/07/19 06:13:25;;;;;;;1.95;1.85;;;;;;;21.81;52.23;98641.13;5021061;28;20042;-86
2022/07/19 06:15:52;;;;;;;2.38;1.90;;;;;;;21.97;50.71;98642.00;5022904;28;20040;-85
2022/07/19 06:18:18;;;;;;;1.90;1.80;;;;;;;22.17;51.77;98634.09;5017925;28;20550;-85
2022/07/19 06:20:46;;;;;;;2.00;1.90;;;;;;;22.33;50.06;98631.50;5021381;28;20098;-84
2022/07/19 06:23:13;;;;;;;1.90;1.77;;;;;;;22.51;51.87;98636.34;5028600;28;20087;-85
2022/07/19 06:25:45;;;;;;;1.70;1.60;;;;;;;22.64;50.05;98627.81;5019402;28;20076;-86
2022/07/19 06:28:12;;;;;;;2.67;2.22;;;;;;;22.76;49.18;98630.25;5022766;28;20450;-84
2022/07/19 06:30:39;;;;;;;2.28;2.08;;;;;;;22.96;50.41;98629.47;5026245;28;20443;-85
2022/07/19 06:33:05;;;;;;;2.10;1.95;;;;;;;23.06;49.75;98618.00;5018337;28;20482;-85
2022/07/19 06:35:32;;;;;;;2.45;1.75;;;;;;;23.32;47.20;98632.94;5029338;28;20084;-86
2022/07/19 06:37:59;;;;;;;2.00;1.77;;;;;;;23.51;48.97;98633.22;5028443;28;20075;-85
2022/07/19 06:40:26;;;;;;;1.65;1.55;;;;;;;23.69;47.64;98621.94;5021697;28;20069;-86
2022/07/19 06:42:52;;;;;;;4.43;2.05;;;;;;;23.77;47.04;98617.91;5023408;28;20290;-84
2022/07/19 06:45:19;;;;;;;2.05;1.63;;;;;;;24.01;47.73;98626.13;5022673;28;20081;-85
2022/07/19 06:47:46;;;;;;;2.45;1.50;;;;;;;24.22;47.08;98630.31;5018824;28;20076;-85
2022/07/19 06:50:13;;;;;;;1.80;1.40;;;;;;;24.37;45.99;98628.66;5019654;28;20069;-84
2022/07/19 06:52:59;;;;;;;1.80;1.70;;;;;;;24.50;45.78;98617.34;5023091;28;20081;-85
2022/07/19 06:55:26;;;;;;;1.65;1.55;;;;;;;24.62;43.36;98628.50;5018347;28;20434;-84
2022/07/19 06:57:53;;;;;;;2.10;1.83;;;;;;;24.73;42.17;98619.31;5023260;28;20083;-86
2022/07/19 07:00:19;;;;;;;2.10;1.90;;;;;;;24.88;42.08;98625.66;5023492;28;20050;-85
2022/07/19 07:02:46;;;;;;;2.13;1.50;;;;;;;25.07;42.15;98618.56;5023789;28;20445;-87
2022/07/19 07:05:13;;;;;;;1.88;1.77;;;;;;;25.24;41.26;98624.31;5022672;28;20060;-85
2022/07/19 07:07:41;;;;;;;1.88;1.50;;;;;;;25.41;41.78;98623.09;5021674;28;20038;-86
2022/07/19 07:10:09;;;;;;;1.80;1.70;;;;;;;25.61;40.67;98617.53;5037765;28;20081;-85
2022/07/19 07:12:37;;;;;;;1.80;1.50;;;;;;;25.83;42.08;98617.81;5021207;28;20038;-85
2022/07/19 07:15:07;;;;;;;2.10;1.80;;;;;;;25.96;39.46;98615.53;5023493;28;20041;-84
2022/07/19 07:17:35;;;;;;;1.85;1.75;;;;;;;26.17;41.42;98624.94;5018942;28;20091;-88
2022/07/19 07:20:07;;;;;;;1.85;1.75;;;;;;;26.41;40.02;98619.56;5020507;28;20120;-86
2022/07/19 07:22:35;;;;;;;1.40;1.30;;;;;;;26.49;38.71;98612.72;5023572;28;20472;-86
2022/07/19 07:25:04;;;;;;;1.50;1.40;;;;;;;26.69;38.88;98612.44;5024772;28;20080;-84
2022/07/19 07:27:31;;;;;;;1.52;1.42;;;;;;;26.79;39.17;98608.75;5019185;28;20034;-86
2022/07/19 07:29:58;;;;;;;1.83;1.73;;;;;;;26.86;37.63;98596.53;5022335;28;20041;-86
2022/07/19 07:32:26;;;;;;;1.65;1.55;;;;;;;26.98;37.80;98597.97;5020932;28;20041;-84
2022/07/19 07:34:54;;;;;;;1.90;1.50;;;;;;;27.16;37.69;98597.16;5024446;28;20048;-86
2022/07/19 07:37:20;;;;;;;1.83;1.38;;;;;;;27.27;37.80;98603.97;5018995;28;20303;-86
2022/07/19 07:39:47;;;;;;;1.50;1.35;;;;;;;27.40;36.89;98594.28;5021692;28;20061;-88
2022/07/19 07:42:14;;;;;;;1.70;1.60;;;;;;;27.57;38.48;98596.41;5025421;28;20092;-84
2022/07/19 07:44:41;;;;;;;1.50;1.40;;;;;;;27.71;37.24;98605.34;5025166;28;20064;-86
2022/07/19 07:47:08;;;;;;;1.85;1.75;;;;;;;27.84;36.09;98604.53;5021695;28;20065;-84
2022/07/19 07:49:39;;;;;;;2.33;1.70;;;;;;;27.99;36.45;98596.13;5019283;28;20088;-85
2022/07/19 07:52:06;;;;;;;1.60;1.50;;;;;;;28.17;37.58;98604.41;5020052;28;20391;-84
2022/07/19 07:54:34;;;;;;;1.98;1.50;;;;;;;28.21;36.72;98591.91;5023961;28;20050;-85
2022/07/19 07:57:02;;;;;;;1.70;1.60;;;;;;;28.26;35.58;98589.09;5028519;28;20037;-83
2022/07/19 07:59:28;;;;;;;2.85;1.90;;;;;;;28.39;37.19;98596.41;5024002;28;20107;-83
2022/07/19 08:01:55;;;;;;;2.78;1.60;;;;;;;28.51;36.48;98588.56;5025207;28;20041;-83
2022/07/19 08:04:26;;;;;;;1.63;1.45;;;;;;;28.62;36.96;98591.03;5026736;28;20076;-83
2022/07/19 08:06:54;;;;;;;1.55;1.45;;;;;;;28.78;33.97;98595.75;5008136;28;20050;-85
2022/07/19 08:09:21;;;;;;;2.72;1.90;;;;;;;28.88;33.63;98578.50;5026842;28;20080;-84
2022/07/19 08:11:47;;;;;;;1.58;1.48;;;;;;;28.97;35.15;98584.81;5027452;28;20065;-83
2022/07/19 08:14:14;;;;;;;1.73;1.30;;;;;;;29.19;34.14;98583.16;5023765;28;20099;-83
2022/07/19 08:16:41;;;;;;;1.33;1.23;;;;;;;29.36;32.59;98579.75;5026566;28;20414;-84
2022/07/19 08:19:09;;;;;;;1.60;1.50;;;;;;;29.48;31.42;98583.47;5022596;28;20478;-83
2022/07/19 08:21:36;;;;;;;1.60;1.50;;;;;;;29.52;32.73;98578.28;5023319;28;20045;-84
2022/07/19 08:24:04;;;;;;;1.10;1.10;;;;;;;29.65;30.97;98571.16;5023231;28;20069;-83
2022/07/19 08:26:38;;;;;;;1.35;1.25;;;;;;;29.75;30.49;98570.88;5026982;28;20406;-83
2022/07/19 08:29:04;;;;;;;1.50;1.40;;;;;;;29.81;28.17;98569.63;5023665;28;20294;-84
2022/07/19 08:31:31;;;;;;;1.98;1.50;;;;;;;29.93;30.87;98574.41;5025890;28;20115;-84
2022/07/19 08:33:58;;;;;;;1.23;1.23;;;;;;;29.96;28.99;98577.28;5023112;28;20405;-83
2022/07/19 08:36:24;;;;;;;1.90;1.30;;;;;;;30.03;29.96;98576.81;5026088;28;20119;-84
2022/07/19 08:38:51;;;;;;;2.47;1.23;;;;;;;30.15;31.25;98568.91;5026098;28;20104;-84
2022/07/19 08:41:20;;;;;;;1.67;1.40;;;;;;;30.17;30.02;98568.59;5024804;28;20127;-83
2022/07/19 08:43:50;;;;;;;1.55;1.45;;;;;;;30.32;29.11;98568.91;5023269;28;20087;-84
2022/07/19 08:46:21;;;;;;;2.53;1.30;;;;;;;30.37;29.19;98573.38;5025867;28;20477;-83
2022/07/19 08:48:48;;;;;;;1.50;1.40;;;;;;;30.40;29.42;98564.63;5024356;28;20140;-85
2022/07/19 08:51:21;;;;;;;1.10;1.10;;;;;;;30.55;28.04;98566.84;5021382;28;20429;-83
2022/07/19 08:53:50;;;;;;;1.38;1.27;;;;;;;30.53;28.36;98558.28;5019026;28;20049;-84
2022/07/19 08:59:06;;;;;;;1.60;1.30;;;;;;;30.80;29.79;98556.34;5021332;28;20087;-83
2022/07/19 09:01:33;;;;;;;1.52;1.42;;;;;;;30.92;27.97;98551.84;5025680;28;20034;-85
2022/07/19 09:04:03;;;;;;;1.40;1.30;;;;;;;30.99;27.95;98553.28;5029434;28;20354;-84
2022/07/19 09:06:40;;;;;;;1.60;1.50;;;;;;;31.00;28.95;98552.16;5022669;28;20083;-84
2022/07/19 09:09:07;;;;;;;1.60;1.50;;;;;;;31.14;28.86;98555.47;5026935;28;20170;-84
2022/07/19 09:11:38;;;;;;;2.35;1.63;;;;;;;31.03;27.60;98544.19;5025978;28;20042;-84
2022/07/19 09:14:10;;;;;;;2.33;1.83;;;;;;;31.07;27.72;98547.84;5025453;28;20041;-84
2022/07/19 09:17:19;;;;;;;2.00;1.30;;;;;;;31.18;29.24;98545.56;5017408;28;20489;-82
2022/07/19 09:19:49;;;;;;;1.60;1.50;;;;;;;31.28;28.00;98549.88;5026544;28;20069;-85
2022/07/19 09:22:19;;;;;;;;;;;;;;;31.33;27.77;98552.41;5032047;28;20100;-83
2022/07/19 09:24:50;;;;;;;1.90;1.60;;;;;;;31.27;27.53;98549.06;5024432;28;19921;-84
2022/07/19 09:27:22;;;;;;;1.70;1.60;;;;;;;31.22;27.87;98546.50;5025687;28;20069;-84
2022/07/19 09:29:55;;;;;;;2.42;2.22;;;;;;;31.24;27.91;98546.19;5024599;28;20062;-84
2022/07/19 09:32:24;;;;;;;3.10;1.58;;;;;;;31.34;27.36;98554.00;5038881;28;20045;-85
2022/07/19 09:35:04;;;;;;;2.17;1.88;;;;;;;31.34;27.55;98548.56;5019473;28;20049;-84
2022/07/19 09:37:34;;;;;;;1.53;1.43;;;;;;;31.46;27.36;98545.97;5018784;28;20569;-83
2022/07/19 09:40:06;;;;;;;;;;;;;;;31.59;27.48;98550.34;5022089;28;20103;-82
2022/07/19 09:42:42;;;;;;;1.65;1.45;;;;;;;31.65;27.54;98543.63;5014986;28;19952;-84
2022/07/19 09:45:12;;;;;;;1.67;1.50;;;;;;;31.80;27.85;98544.22;5023208;28;20486;-82
2022/07/19 09:47:46;;;;;;;1.25;1.23;;;;;;;31.90;27.26;98541.13;5021584;28;20073;-84
2022/07/19 09:50:21;;;;;;;2.47;1.92;;;;;;;31.84;25.70;98542.44;5037945;28;20092;-85
2022/07/19 09:52:50;;;;;;;2.05;1.85;;;;;;;31.83;26.40;98547.06;5029470;28;20049;-83
2022/07/19 09:55:19;;;;;;;1.83;1.50;;;;;;;31.96;27.49;98542.50;5019518;28;20065;-83
2022/07/19 09:57:49;;;;;;;1.85;1.38;;;;;;;31.99;25.13;98531.03;5022779;28;20042;-82
2022/07/19 10:00:19;;;;;;;2.10;1.30;;;;;;;32.15;24.39;98525.81;5017779;28;20075;-83
2022/07/19 10:03:01;;;;;;;1.30;1.20;;;;;;;32.27;23.60;98525.03;5007922;28;20100;-84
2022/07/19 10:05:30;;;;;;;1.70;1.60;;;;;;;32.29;25.39;98522.81;5024632;28;20492;-83
2022/07/19 10:07:58;;;;;;;1.85;1.60;;;;;;;32.40;24.80;98532.97;5020303;28;20477;-84
2022/07/19 10:10:30;;;;;;;1.83;1.73;;;;;;;32.42;23.58;98522.56;5021452;28;20716;-84
2022/07/19 10:12:58;;;;;;;1.65;1.55;;;;;;;32.56;23.22;98516.81;5025680;28;20176;-83
2022/07/19 10:15:26;;;;;;;2.70;1.67;;;;;;;32.47;23.48;98518.84;5018774;28;20243;-85
2022/07/19 10:18:20;;;;;;;1.70;1.60;;;;;;;32.36;24.23;98512.25;5020582;28;20044;-84
2022/07/19 10:20:48;;;;;;;1.65;1.55;;;;;;;32.43;24.62;98502.41;5024870;28;20328;-84
2022/07/19 10:23:15;;;;;;;1.67;1.58;;;;;;;32.59;24.16;98507.25;5020170;28;20490;-83
2022/07/19 10:25:47;;;;;;;1.98;1.70;;;;;;;32.71;23.65;98502.63;5023729;28;20069;-83
2022/07/19 10:28:37;;;;;;;1.67;1.30;;;;;;;32.90;22.91;98514.94;5024174;28;20088;-83
2022/07/19 10:31:27;;;;;;;1.55;1.42;;;;;;;33.05;22.77;98506.13;5024397;28;20045;-83
2022/07/19 10:34:08;;;;;;;1.88;1.30;;;;;;;33.09;23.47;98500.81;5021111;28;20096;-83
2022/07/19 10:36:43;;;;;;;2.10;1.23;;;;;;;33.14;22.10;98492.44;5026283;28;20448;-83
2022/07/19 10:39:30;;;;;;;2.05;1.30;;;;;;;33.28;22.94;98498.31;5022657;28;20038;-85
2022/07/19 10:42:14;;;;;;;1.33;1.23;;;;;;;33.31;22.56;98486.78;5021535;28;20486;-81
2022/07/19 10:44:56;;;;;;;1.52;1.30;;;;;;;33.37;23.11;98490.84;5024042;28;20046;-84
2022/07/19 10:47:32;;;;;;;2.78;1.83;;;;;;;33.49;22.29;98490.09;5027077;28;20048;-83
2022/07/19 10:50:05;;;;;;;1.92;1.38;;;;;;;33.56;22.08;98484.84;5021885;28;20042;-84
2022/07/19 10:52:35;;;;;;;1.92;1.27;;;;;;;33.74;22.77;98505.22;5017929;28;20069;-84
2022/07/19 10:55:17;;;;;;;1.40;1.30;;;;;;;33.76;22.07;98492.06;5022589;28;20068;-84
2022/07/19 10:57:53;;;;;;;1.35;1.20;;;;;;;33.64;21.98;98489.38;5021308;28;20402;-83
2022/07/19 11:00:28;;;;;;;2.78;1.60;;;;;;;33.72;22.45;98482.25;5017272;28;20441;-84
2022/07/19 11:03:20;;;;;;;1.70;1.50;;;;;;;33.76;22.14;98478.47;5022313;28;20115;-83
2022/07/19 11:06:00;;;;;;;1.35;1.25;;;;;;;33.75;22.58;98478.81;5021474;28;20079;-83
2022/07/19 11:08:37;;;;;;;1.65;1.50;;;;;;;33.81;21.71;98478.22;5021849;28;20044;-85
2022/07/19 11:11:15;;;;;;;1.65;1.38;;;;;;;33.89;21.58;98473.00;5022777;28;20053;-83
2022/07/19 11:13:49;;;;;;;1.80;1.20;;;;;;;33.95;23.08;98471.69;5024054;28;20050;-83
2022/07/19 11:16:17;;;;;;;1.45;1.35;;;;;;;34.06;22.76;98464.59;5019476;28;20067;-83
2022/07/19 11:18:45;;;;;;;2.28;1.30;;;;;;;34.07;21.48;98453.38;5018170;28;20038;-84
2022/07/19 11:21:15;;;;;;;3.45;1.50;;;;;;;34.17;21.28;98456.72;5021440;28;20041;-82
2022/07/19 11:23:44;;;;;;;1.60;1.50;;;;;;;34.15;21.68;98453.56;5021681;28;20493;-83
2022/07/19 11:26:20;;;;;;;1.67;1.58;;;;;;;34.14;20.59;98452.78;5024786;28;20122;-81
2022/07/19 11:28:49;;;;;;;1.70;1.60;;;;;;;34.00;20.87;98447.72;5023277;28;20485;-83
2022/07/19 11:31:20;;;;;;;2.05;1.65;;;;;;;33.83;21.04;98437.09;5023005;28;20152;-82
2022/07/19 11:33:52;;;;;;;1.50;1.27;;;;;;;34.02;22.22;98441.94;5029068;28;20037;-80
2022/07/19 11:36:20;;;;;;;1.85;1.48;;;;;;;34.17;21.04;98440.41;5025322;28;20100;-80
2022/07/19 11:38:52;;;;;;;1.50;1.40;;;;;;;34.18;21.42;98444.69;5026179;28;20473;-80
2022/07/19 11:41:31;;;;;;;1.40;1.30;;;;;;;34.34;21.88;98437.38;5021424;28;20046;-83
2022/07/19 11:44:05;;;;;;;2.35;1.30;;;;;;;34.35;21.48;98436.22;5028157;28;20087;-81
2022/07/19 11:46:39;;;;;;;1.52;1.33;;;;;;;34.36;21.04;98432.34;5024378;28;20432;-82
2022/07/19 11:49:09;;;;;;;1.30;1.20;;;;;;;34.34;21.05;98435.44;5024580;28;20037;-85
2022/07/19 11:51:37;;;;;;;1.40;1.30;;;;;;;34.21;20.96;98427.69;5012057;28;20048;-82
2022/07/19 11:54:06;;;;;;;1.30;1.20;;;;;;;34.32;21.28;98437.72;5012618;28;20045;-83